Time;durP1;ratioP1;P1;durP2;ratioP2;P2;SDS_P1;SDS_P2;PMS_P1;PMS_P2;Temp;Humidity;BMP_temperature;BMP_pressure;BME280_temperature;BME280_humidity;BME280_pressure;Samples;Min_cycle;Max_cycle;Signal;HPM_P1;HPM_P2
2023/04/05 00:01:18;;;;;;;3.53;2.80;;;21.80;47.60;;;;;;5029480;28;20443;-74
2023/04/05 00:03:46;;;;;;;3.20;2.90;;;21.80;47.60;;;;;;5011206;28;20455;-74
2023/04/05 00:06:15;;;;;;;3.43;3.13;;;21.80;47.60;;;;;;5011496;28;20470;-74
2023/04/05 00:08:49;;;;;;;3.10;2.90;;;21.80;47.60;;;;;;5028971;28;20462;-74
2023/04/05 00:11:19;;;;;;;3.40;3.10;;;21.80;47.60;;;;;;5030031;28;20445;-83
2023/04/05 00:13:48;;;;;;;3.30;3.10;;;21.80;47.60;;;;;;5030145;28;20426;-74
2023/04/05 00:16:16;;;;;;;3.10;2.90;;;21.80;47.60;;;;;;5030780;28;20447;-75
2023/04/05 00:18:48;;;;;;;3.00;2.80;;;21.80;47.50;;;;;;5030157;28;20862;-80
2023/04/05 00:21:17;;;;;;;3.63;2.90;;;21.80;47.50;;;;;;5030071;28;21273;-77
2023/04/05 00:23:45;;;;;;;3.50;3.30;;;21.80;47.60;;;;;;5013676;28;20492;-74
2023/04/05 00:26:13;;;;;;;3.10;2.90;;;21.80;47.60;;;;;;5030113;28;20484;-74
2023/04/05 00:28:49;;;;;;;2.97;2.70;;;21.80;47.60;;;;;;5029849;28;20521;-74
2023/04/05 00:31:17;;;;;;;3.73;3.43;;;21.70;47.60;;;;;;5029769;28;20451;-77
2023/04/05 00:33:46;;;;;;;3.20;2.67;;;21.80;47.50;;;;;;4996913;28;20457;-76
2023/04/05 00:36:15;;;;;;;2.77;2.57;;;21.70;47.60;;;;;;5012808;28;20484;-76
2023/04/05 00:38:45;;;;;;;2.97;2.77;;;21.70;47.60;;;;;;5013453;28;20449;-80
2023/04/05 00:41:14;;;;;;;3.53;3.00;;;21.70;47.60;;;;;;5016751;28;20474;-77
2023/04/05 00:43:42;;;;;;;3.70;3.37;;;21.70;47.60;;;;;;5015216;28;20519;-75
2023/04/05 00:46:12;;;;;;;3.17;2.97;;;21.70;47.60;;;;;;5034047;28;20469;-74
2023/04/05 00:48:40;;;;;;;2.90;2.70;;;21.70;47.60;;;;;;5023501;28;20462;-74
2023/04/05 00:51:10;;;;;;;3.17;2.97;;;21.70;47.60;;;;;;4996489;28;20872;-75
2023/04/05 00:53:41;;;;;;;2.40;2.30;;;21.70;47.60;;;;;;5023066;28;20542;-74
2023/04/05 00:56:12;;;;;;;2.43;2.23;;;21.70;47.60;;;;;;5024720;28;20540;-75
2023/04/05 00:58:41;;;;;;;2.60;2.43;;;21.70;47.50;;;;;;5032592;28;20480;-74
2023/04/05 01:01:16;;;;;;;3.10;2.90;;;21.70;47.50;;;;;;5034208;28;20556;-81
2023/04/05 01:03:50;;;;;;;3.00;2.47;;;21.70;47.60;;;;;;5033180;28;20529;-76
2023/04/05 01:06:35;;;;;;;3.43;3.17;;;21.70;47.60;;;;;;5033437;28;20970;-75
2023/04/05 01:09:08;;;;;;;2.60;2.40;;;21.70;47.50;;;;;;5015667;28;20488;-77
2023/04/05 01:11:40;;;;;;;2.60;2.40;;;21.70;47.50;;;;;;5015508;28;20930;-74
2023/04/05 01:14:08;;;;;;;3.17;2.80;;;21.70;47.50;;;;;;5032371;28;20947;-75
2023/04/05 01:16:37;;;;;;;2.83;2.63;;;21.70;47.60;;;;;;5033554;28;20433;-74
2023/04/05 01:19:08;;;;;;;2.87;2.67;;;21.70;47.60;;;;;;5033767;28;20561;-77
2023/04/05 01:22:16;;;;;;;3.33;3.03;;;21.70;47.60;;;;;;5015913;28;20439;-76
2023/04/05 01:25:05;;;;;;;3.40;3.20;;;21.60;47.70;;;;;;5013068;28;20894;-76
2023/04/05 01:27:56;;;;;;;2.80;2.60;;;21.60;47.70;;;;;;5014006;28;20482;-77
2023/04/05 01:30:29;;;;;;;2.10;2.00;;;21.60;47.70;;;;;;5013061;28;20455;-80
2023/04/05 01:33:08;;;;;;;3.70;2.83;;;21.60;47.70;;;;;;5025712;28;20457;-79
2023/04/05 01:35:43;;;;;;;2.30;2.17;;;21.60;47.60;;;;;;5031961;28;20464;-76
2023/04/05 01:38:17;;;;;;;3.20;3.00;;;21.60;47.70;;;;;;5032702;28;20488;-78
2023/04/05 01:40:46;;;;;;;2.63;2.43;;;21.60;47.70;;;;;;5032389;28;20947;-76
2023/04/05 01:43:14;;;;;;;3.00;2.80;;;21.60;47.70;;;;;;5027650;28;20808;-78
2023/04/05 01:45:45;;;;;;;2.57;2.47;;;21.60;47.70;;;;;;4995575;28;20537;-77
2023/04/05 01:48:13;;;;;;;2.70;2.60;;;21.60;47.60;;;;;;5012724;28;20492;-77
2023/04/05 01:50:41;;;;;;;3.17;2.63;;;21.60;47.60;;;;;;4995354;28;20451;-76
2023/04/05 01:53:10;;;;;;;2.53;2.37;;;21.60;47.60;;;;;;5008443;28;20505;-79
2023/04/05 01:55:38;;;;;;;2.50;2.30;;;21.60;47.60;;;;;;5032714;28;21240;-77
2023/04/05 01:58:08;;;;;;;2.73;2.53;;;21.60;47.60;;;;;;5014756;28;20561;-79
2023/04/05 02:00:37;;;;;;;2.40;2.30;;;21.60;47.60;;;;;;5032434;28;20441;-76
2023/04/05 02:03:07;;;;;;;2.77;2.57;;;21.60;47.60;;;;;;5013829;28;20781;-76
2023/04/05 02:05:36;;;;;;;2.43;2.30;;;21.60;47.60;;;;;;5033006;28;20462;-74
2023/04/05 02:08:04;;;;;;;2.80;2.30;;;21.60;47.60;;;;;;5028746;28;20479;-76
2023/04/05 02:10:32;;;;;;;2.90;2.70;;;21.60;47.60;;;;;;5014908;28;20458;-79
2023/04/05 02:13:00;;;;;;;2.60;2.40;;;21.60;47.60;;;;;;5014086;28;20453;-74
2023/04/05 02:15:31;;;;;;;2.20;2.00;;;21.60;47.60;;;;;;5013515;28;20483;-74
2023/04/05 02:18:00;;;;;;;2.53;2.33;;;21.50;47.60;;;;;;5032632;28;20493;-74
2023/04/05 02:20:31;;;;;;;2.27;2.17;;;21.60;47.60;;;;;;5031844;28;20996;-74
2023/04/05 02:23:00;;;;;;;2.57;2.37;;;21.50;47.60;;;;;;5031330;28;20481;-75
2023/04/05 02:25:29;;;;;;;3.03;2.83;;;21.50;47.60;;;;;;5032182;28;20441;-75
2023/04/05 02:27:57;;;;;;;2.73;2.53;;;21.50;47.60;;;;;;5014317;28;20909;-75
2023/04/05 02:30:27;;;;;;;3.07;2.30;;;21.50;47.60;;;;;;5013728;28;20449;-74
2023/04/05 02:32:55;;;;;;;2.50;2.20;;;21.50;47.60;;;;;;5013060;28;20500;-74
2023/04/05 02:35:24;;;;;;;2.70;2.50;;;21.50;47.60;;;;;;5030903;28;20815;-75
2023/04/05 02:37:55;;;;;;;2.63;2.43;;;21.50;47.60;;;;;;5014137;28;20849;-74
2023/04/05 02:40:24;;;;;;;3.50;2.60;;;21.50;47.60;;;;;;5032102;28;20445;-74
2023/04/05 02:42:52;;;;;;;3.27;3.07;;;21.50;47.60;;;;;;5027477;28;20527;-79
2023/04/05 02:45:20;;;;;;;2.67;2.47;;;21.50;47.60;;;;;;5031192;28;20529;-77
2023/04/05 02:47:49;;;;;;;2.33;2.23;;;21.50;47.60;;;;;;5014283;28;21016;-80
2023/04/05 02:50:19;;;;;;;2.53;2.33;;;21.50;47.60;;;;;;5013854;28;20441;-76
2023/04/05 02:52:47;;;;;;;2.73;2.53;;;21.50;47.60;;;;;;5009526;28;20568;-76
2023/04/05 02:55:18;;;;;;;2.50;2.33;;;21.50;47.60;;;;;;5010866;28;20454;-75
2023/04/05 02:57:47;;;;;;;2.70;2.50;;;21.50;47.60;;;;;;5011863;28;20475;-78
2023/04/05 03:00:26;;;;;;;2.13;2.03;;;21.50;47.60;;;;;;5009682;28;20460;-78
2023/04/05 03:02:56;;;;;;;2.80;2.60;;;21.50;47.60;;;;;;5008325;28;20464;-75
2023/04/05 03:05:24;;;;;;;2.40;2.30;;;21.50;47.60;;;;;;5010243;28;20466;-77
2023/04/05 03:07:53;;;;;;;2.57;2.37;;;21.40;47.60;;;;;;5010681;28;20482;-76
2023/04/05 03:10:33;;;;;;;3.23;2.70;;;21.40;47.60;;;;;;5009963;28;20443;-77
2023/04/05 03:13:08;;;;;;;2.30;2.20;;;21.40;47.60;;;;;;5009219;28;20463;-80
2023/04/05 03:15:36;;;;;;;2.67;2.47;;;21.40;47.60;;;;;;5010829;28;20450;-75
2023/04/05 03:18:10;;;;;;;2.53;2.37;;;21.40;47.60;;;;;;5010378;28;20450;-76
2023/04/05 03:20:40;;;;;;;2.60;2.40;;;21.40;47.60;;;;;;5001410;28;20463;-76
2023/04/05 03:23:16;;;;;;;3.13;2.93;;;21.40;47.60;;;;;;5002884;28;21028;-75
2023/04/05 03:25:46;;;;;;;2.70;2.50;;;21.40;47.60;;;;;;5010470;28;20550;-76
2023/04/05 03:28:17;;;;;;;2.60;2.40;;;21.40;47.60;;;;;;4994793;28;20483;-76
2023/04/05 03:30:48;;;;;;;2.30;2.20;;;21.40;47.60;;;;;;5010476;28;20513;-75
2023/04/05 03:33:20;;;;;;;2.70;2.50;;;21.40;47.60;;;;;;5009495;28;20557;-77
2023/04/05 03:35:50;;;;;;;2.67;2.47;;;21.40;47.60;;;;;;5008955;28;20552;-76
2023/04/05 03:38:19;;;;;;;2.90;2.60;;;21.40;47.60;;;;;;5010175;28;20479;-76
2023/04/05 03:41:09;;;;;;;3.00;2.70;;;21.40;47.60;;;;;;5010923;28;20455;-75
2023/04/05 03:43:37;;;;;;;2.47;2.37;;;21.40;47.60;;;;;;5006025;28;20455;-75
2023/04/05 03:46:06;;;;;;;2.97;2.50;;;21.40;47.60;;;;;;4990468;28;20463;-77
2023/04/05 03:48:34;;;;;;;3.40;2.67;;;21.40;47.60;;;;;;4991501;28;20509;-77
2023/04/05 03:51:03;;;;;;;2.67;2.47;;;21.40;47.60;;;;;;5004902;28;20458;-75
2023/04/05 03:53:31;;;;;;;3.00;2.80;;;21.40;47.60;;;;;;5025373;28;20465;-75
2023/04/05 03:56:00;;;;;;;2.70;2.27;;;21.40;47.60;;;;;;5013665;28;20468;-76
2023/04/05 03:58:42;;;;;;;2.17;2.07;;;21.40;47.60;;;;;;5011649;28;20475;-76
2023/04/05 04:01:11;;;;;;;2.73;2.50;;;21.30;47.60;;;;;;5013196;28;20487;-75
2023/04/05 04:03:40;;;;;;;2.43;2.23;;;21.40;47.60;;;;;;5001717;28;20492;-75
2023/04/05 04:06:08;;;;;;;2.27;2.07;;;21.40;47.60;;;;;;4993526;28;20455;-75
2023/04/05 04:08:36;;;;;;;2.33;2.23;;;21.40;47.60;;;;;;5018545;28;20469;-76
2023/04/05 04:11:05;;;;;;;2.60;2.40;;;21.30;47.60;;;;;;5013057;28;20898;-76
2023/04/05 04:13:39;;;;;;;3.27;2.80;;;21.30;47.60;;;;;;5002314;28;20457;-78
2023/04/05 04:16:19;;;;;;;2.37;2.27;;;21.30;47.60;;;;;;4997393;28;21007;-77
2023/04/05 04:19:10;;;;;;;2.87;2.57;;;21.30;47.60;;;;;;5029755;28;20461;-77
2023/04/05 04:22:19;;;;;;;2.60;2.40;;;21.30;47.60;;;;;;5012234;28;20466;-76
2023/04/05 04:25:17;;;;;;;2.50;2.30;;;21.30;47.60;;;;;;5046587;28;20487;-75
2023/04/05 04:28:05;;;;;;;3.23;3.00;;;21.30;47.60;;;;;;5015022;28;20475;-75
2023/04/05 04:30:52;;;;;;;2.40;2.30;;;21.30;47.60;;;;;;5034788;28;20423;-78
2023/04/05 04:33:39;;;;;;;2.70;2.50;;;21.30;47.60;;;;;;5005482;28;20481;-78
2023/04/05 04:36:33;;;;;;;2.43;2.23;;;21.30;47.60;;;;;;5028242;28;20470;-78
2023/04/05 04:39:43;;;;;;;2.97;2.30;;;21.30;47.60;;;;;;5028431;28;20994;-78
2023/04/05 04:42:47;;;;;;;2.83;2.63;;;21.30;47.60;;;;;;5012153;28;20453;-75
2023/04/05 04:45:36;;;;;;;2.67;2.47;;;21.30;47.60;;;;;;5016879;28;20503;-76
2023/04/05 04:48:15;;;;;;;3.50;2.80;;;21.30;47.60;;;;;;5016002;28;20476;-76
2023/04/05 04:50:59;;;;;;;2.43;2.23;;;21.30;47.60;;;;;;5015372;28;20556;-75
2023/04/05 04:53:28;;;;;;;2.40;2.20;;;21.20;47.60;;;;;;5016056;28;20464;-80
2023/04/05 04:55:56;;;;;;;2.30;2.20;;;21.20;47.60;;;;;;5034008;28;20444;-75
2023/04/05 04:58:25;;;;;;;2.17;2.07;;;21.30;47.60;;;;;;5031959;28;20551;-76
2023/04/05 05:01:08;;;;;;;2.33;2.13;;;21.20;47.60;;;;;;5008246;28;20461;-75
2023/04/05 05:03:37;;;;;;;3.00;2.80;;;21.30;47.60;;;;;;5023092;28;20460;-76
2023/04/05 05:06:07;;;;;;;2.33;2.13;;;21.30;47.50;;;;;;5014221;28;20427;-76
2023/04/05 05:08:37;;;;;;;3.17;2.97;;;21.30;47.60;;;;;;5011114;28;20530;-77
2023/04/05 05:11:07;;;;;;;2.23;2.13;;;21.30;47.60;;;;;;5033394;28;20428;-76
2023/04/05 05:13:36;;;;;;;2.97;2.77;;;21.20;47.50;;;;;;5033062;28;20532;-76
2023/04/05 05:16:05;;;;;;;3.03;2.70;;;21.30;47.50;;;;;;5033464;28;20962;-76
2023/04/05 05:18:33;;;;;;;2.13;2.03;;;21.20;47.50;;;;;;5014835;28;20450;-81
2023/04/05 05:21:02;;;;;;;2.57;2.37;;;21.30;47.50;;;;;;5034225;28;20433;-75
2023/04/05 05:23:31;;;;;;;2.27;2.17;;;21.30;47.50;;;;;;5006375;28;20508;-76
2023/04/05 05:26:00;;;;;;;2.73;2.40;;;21.30;47.50;;;;;;5012736;28;20450;-78
2023/04/05 05:28:28;;;;;;;2.63;2.43;;;21.30;47.50;;;;;;5016757;28;20569;-76
2023/04/05 05:30:56;;;;;;;2.87;2.67;;;21.30;47.50;;;;;;5033190;28;20462;-76
2023/04/05 05:33:25;;;;;;;2.80;2.60;;;21.20;47.50;;;;;;5025242;28;20458;-77
2023/04/05 05:35:53;;;;;;;3.03;2.70;;;21.30;47.50;;;;;;5013471;28;20453;-76
2023/04/05 05:38:22;;;;;;;3.13;2.93;;;21.30;47.50;;;;;;5016086;28;20855;-75
2023/04/05 05:40:57;;;;;;;2.60;2.50;;;21.30;47.50;;;;;;5033707;28;20951;-75
2023/04/05 05:43:25;;;;;;;2.37;2.27;;;21.30;47.50;;;;;;5023851;28;20449;-78
2023/04/05 05:45:53;;;;;;;2.50;2.30;;;21.30;47.50;;;;;;5013135;28;20442;-76
2023/04/05 05:48:21;;;;;;;2.30;2.20;;;21.30;47.50;;;;;;5015750;28;20540;-75
2023/04/05 05:50:49;;;;;;;2.60;2.40;;;21.30;47.50;;;;;;5033381;28;21134;-78
2023/04/05 05:53:18;;;;;;;2.43;2.20;;;21.30;47.50;;;;;;5025832;28;20484;-76
2023/04/05 05:55:46;;;;;;;2.60;2.40;;;21.30;47.50;;;;;;5013561;28;20441;-76
2023/04/05 05:58:16;;;;;;;2.90;2.70;;;21.30;47.50;;;;;;5013697;28;20999;-76
2023/04/05 06:00:45;;;;;;;2.50;2.13;;;21.30;47.50;;;;;;5032501;28;20493;-80
2023/04/05 06:03:17;;;;;;;2.13;2.03;;;21.30;47.40;;;;;;5018834;28;20532;-76
2023/04/05 06:05:51;;;;;;;2.90;2.70;;;21.30;47.40;;;;;;5032725;28;20441;-76
2023/04/05 06:08:19;;;;;;;3.27;3.03;;;21.30;47.50;;;;;;5030831;28;20493;-75
2023/04/05 06:10:49;;;;;;;2.90;2.70;;;21.30;47.40;;;;;;5031366;28;20559;-76
2023/04/05 06:13:18;;;;;;;2.83;2.60;;;21.30;47.40;;;;;;5007296;28;20520;-76
2023/04/05 06:15:47;;;;;;;2.50;2.30;;;21.30;47.40;;;;;;5013154;28;20454;-76
2023/04/05 06:18:16;;;;;;;3.00;2.83;;;21.30;47.40;;;;;;5012671;28;20428;-82
2023/04/05 06:20:44;;;;;;;2.90;2.70;;;21.30;47.40;;;;;;5032292;28;20541;-75
2023/04/05 06:23:13;;;;;;;2.83;2.63;;;21.30;47.40;;;;;;5024756;28;20551;-78
2023/04/05 06:25:43;;;;;;;3.10;2.77;;;21.30;47.40;;;;;;5013760;28;20573;-76
2023/04/05 06:28:11;;;;;;;2.80;2.60;;;21.30;47.40;;;;;;5027092;28;20471;-81
2023/04/05 06:30:41;;;;;;;3.40;2.90;;;21.30;47.40;;;;;;5029246;28;20967;-78
2023/04/05 06:33:09;;;;;;;2.67;2.47;;;21.30;47.40;;;;;;5029039;28;20454;-76
2023/04/05 06:35:37;;;;;;;2.87;2.67;;;21.40;47.40;;;;;;5027835;28;20460;-76
2023/04/05 06:38:06;;;;;;;3.33;2.70;;;21.40;47.40;;;;;;5030451;28;20448;-81
2023/04/05 06:40:34;;;;;;;2.93;2.63;;;21.40;47.30;;;;;;5030949;28;20456;-78
2023/04/05 06:43:02;;;;;;;2.73;2.57;;;21.40;47.30;;;;;;5025849;28;20446;-81
2023/04/05 06:45:32;;;;;;;2.43;2.33;;;21.40;47.30;;;;;;5000253;28;20514;-76
2023/04/05 06:48:02;;;;;;;2.80;2.60;;;21.40;47.30;;;;;;5031143;28;20449;-79
2023/04/05 06:50:30;;;;;;;2.47;2.37;;;21.40;47.30;;;;;;4998372;28;20498;-76
2023/04/05 06:52:58;;;;;;;2.40;2.30;;;21.40;47.30;;;;;;5031911;28;20578;-77
2023/04/05 06:55:26;;;;;;;2.63;2.43;;;21.40;47.30;;;;;;5027926;28;21254;-76
2023/04/05 06:57:54;;;;;;;3.10;2.80;;;21.40;47.30;;;;;;5030749;28;20457;-79
2023/04/05 07:00:23;;;;;;;2.73;2.53;;;21.40;47.30;;;;;;5027833;28;20479;-77
2023/04/05 07:02:51;;;;;;;3.10;2.50;;;21.40;47.30;;;;;;5026552;28;20466;-77
2023/04/05 07:05:20;;;;;;;2.90;2.70;;;21.50;47.30;;;;;;5028111;28;20459;-78
2023/04/05 07:07:49;;;;;;;2.67;2.47;;;21.40;47.30;;;;;;5029542;28;20485;-76
2023/04/05 07:10:17;;;;;;;2.80;2.60;;;21.50;47.30;;;;;;5030432;28;21081;-77
2023/04/05 07:12:45;;;;;;;2.70;2.50;;;21.50;47.30;;;;;;5028572;28;20465;-76
2023/04/05 07:15:14;;;;;;;2.53;2.33;;;21.50;47.30;;;;;;5029403;28;20940;-80
2023/04/05 07:17:42;;;;;;;2.80;2.60;;;21.50;47.30;;;;;;5024413;28;20957;-79
2023/04/05 07:20:13;;;;;;;3.10;2.90;;;21.50;47.30;;;;;;5026482;28;20969;-76
2023/04/05 07:22:42;;;;;;;2.83;2.50;;;21.50;47.30;;;;;;5011292;28;20551;-76
2023/04/05 07:25:13;;;;;;;3.00;2.60;;;21.50;47.30;;;;;;5011436;28;20430;-80
2023/04/05 07:27:41;;;;;;;3.33;3.13;;;21.50;47.30;;;;;;5011314;28;20965;-76
2023/04/05 07:30:10;;;;;;;2.80;2.60;;;21.50;47.30;;;;;;5010944;28;20473;-77
2023/04/05 07:32:42;;;;;;;2.87;2.67;;;21.50;47.30;;;;;;5026932;28;20450;-77
2023/04/05 07:35:10;;;;;;;3.10;2.90;;;21.60;47.30;;;;;;5022176;28;20897;-77
2023/04/05 07:37:38;;;;;;;3.00;2.80;;;21.50;47.30;;;;;;5030589;28;20455;-77
2023/04/05 07:40:10;;;;;;;3.43;3.13;;;21.50;47.30;;;;;;5013076;28;20697;-76
2023/04/05 07:42:39;;;;;;;2.80;2.60;;;21.50;47.30;;;;;;5030833;28;20453;-76
2023/04/05 07:45:08;;;;;;;2.50;2.40;;;21.60;47.30;;;;;;5010497;28;20463;-76
2023/04/05 07:47:36;;;;;;;3.57;3.27;;;21.60;47.30;;;;;;5010414;28;20453;-79
2023/04/05 07:50:08;;;;;;;2.47;2.37;;;21.60;47.30;;;;;;5030687;28;20469;-76
2023/04/05 07:52:36;;;;;;;2.63;2.43;;;21.60;47.30;;;;;;5031052;28;20857;-77
2023/04/05 07:55:06;;;;;;;2.37;2.23;;;21.60;47.30;;;;;;5030348;28;20443;-76
2023/04/05 07:57:36;;;;;;;2.60;2.40;;;21.60;47.30;;;;;;5012547;28;21066;-78
2023/04/05 08:00:09;;;;;;;2.87;2.57;;;21.60;47.30;;;;;;5030076;28;20465;-76
2023/04/05 08:02:40;;;;;;;3.40;3.10;;;21.60;47.30;;;;;;5030590;28;20508;-79
2023/04/05 08:05:08;;;;;;;2.70;2.53;;;21.60;47.30;;;;;;5011258;28;20428;-76
2023/04/05 08:07:36;;;;;;;3.70;3.37;;;21.60;47.30;;;;;;5027588;28;20461;-76
2023/04/05 08:10:05;;;;;;;2.87;2.77;;;21.60;47.30;;;;;;5030411;28;20572;-78
2023/04/05 08:12:35;;;;;;;3.10;2.90;;;21.60;47.30;;;;;;5031215;28;20439;-79
2023/04/05 08:15:06;;;;;;;3.10;2.80;;;21.60;47.20;;;;;;5010667;28;20481;-76
2023/04/05 08:17:35;;;;;;;2.73;2.53;;;21.60;47.30;;;;;;5027428;28;20542;-84
2023/04/05 08:20:03;;;;;;;2.77;2.57;;;21.60;47.20;;;;;;5010773;28;20475;-76
2023/04/05 08:22:31;;;;;;;3.40;3.20;;;21.60;47.20;;;;;;5011028;28;20538;-77
2023/04/05 08:24:59;;;;;;;3.27;3.07;;;21.60;47.20;;;;;;5027832;28;20446;-76
2023/04/05 08:27:28;;;;;;;2.37;2.27;;;21.60;47.20;;;;;;5028851;28;20536;-77
2023/04/05 08:29:57;;;;;;;3.03;2.80;;;21.60;47.20;;;;;;5011856;28;20557;-76
2023/04/05 08:32:25;;;;;;;2.63;2.43;;;21.60;47.20;;;;;;5018250;28;20447;-76
2023/04/05 08:34:54;;;;;;;2.47;2.37;;;21.60;47.20;;;;;;5024646;28;20459;-78
2023/04/05 08:37:22;;;;;;;2.70;2.50;;;21.60;47.20;;;;;;5029431;28;20839;-79
2023/04/05 08:39:50;;;;;;;2.57;2.47;;;21.70;47.20;;;;;;5030230;28;20433;-76
2023/04/05 08:42:23;;;;;;;2.60;2.50;;;21.70;47.10;;;;;;5030581;28;20442;-79
2023/04/05 08:44:52;;;;;;;2.90;2.60;;;21.70;47.20;;;;;;5011789;28;20851;-78
2023/04/05 08:47:23;;;;;;;3.30;3.00;;;21.70;47.20;;;;;;5023156;28;20534;-76
2023/04/05 08:49:52;;;;;;;2.93;2.73;;;21.70;47.20;;;;;;5030368;28;20879;-80
2023/04/05 08:52:20;;;;;;;2.67;2.47;;;21.70;47.10;;;;;;5009019;28;20844;-76
2023/04/05 08:54:48;;;;;;;3.10;2.90;;;21.70;47.10;;;;;;5010572;28;20466;-79
2023/04/05 08:57:22;;;;;;;2.90;2.70;;;21.70;47.00;;;;;;5009342;28;20462;-76
2023/04/05 08:59:51;;;;;;;2.67;2.47;;;21.70;47.00;;;;;;5008837;28;20456;-76
2023/04/05 09:02:24;;;;;;;2.60;2.40;;;21.70;47.00;;;;;;5012649;28;20535;-77
2023/04/05 09:04:53;;;;;;;2.73;2.60;;;21.70;47.00;;;;;;4996505;28;20506;-77
2023/04/05 09:07:23;;;;;;;2.80;2.60;;;21.70;47.00;;;;;;5006916;28;20577;-79
2023/04/05 09:09:53;;;;;;;3.07;2.73;;;21.70;47.00;;;;;;5013832;28;20438;-77
2023/04/05 09:12:23;;;;;;;2.80;2.60;;;21.70;47.00;;;;;;5012581;28;20470;-80
2023/04/05 09:14:51;;;;;;;2.50;2.30;;;21.70;47.00;;;;;;4996056;28;20928;-78
2023/04/05 09:17:20;;;;;;;2.73;2.53;;;21.70;47.00;;;;;;5007014;28;20970;-76
2023/04/05 09:19:49;;;;;;;3.10;2.90;;;21.70;46.90;;;;;;5013885;28;20443;-77
2023/04/05 09:22:18;;;;;;;2.77;2.57;;;21.80;46.90;;;;;;5013722;28;20441;-78
2023/04/05 09:24:47;;;;;;;2.90;2.70;;;21.80;46.90;;;;;;5010005;28;20483;-76
2023/04/05 09:27:20;;;;;;;3.00;2.40;;;21.80;46.90;;;;;;5011692;28;20490;-75
2023/04/05 09:29:55;;;;;;;3.10;2.90;;;21.80;46.90;;;;;;5010959;28;20460;-76
2023/04/05 09:32:28;;;;;;;2.77;2.57;;;21.80;46.90;;;;;;5013789;28;20511;-76
2023/04/05 09:35:02;;;;;;;2.70;2.50;;;21.80;46.80;;;;;;5011791;28;20473;-76
2023/04/05 09:37:33;;;;;;;3.10;2.90;;;21.80;46.80;;;;;;5011510;28;20549;-76
2023/04/05 09:40:03;;;;;;;2.33;2.23;;;21.80;46.80;;;;;;5011339;28;22147;-76
2023/04/05 09:42:44;;;;;;;2.97;2.77;;;21.90;46.80;;;;;;5012915;28;20538;-79
2023/04/05 09:45:13;;;;;;;2.70;2.50;;;21.90;46.80;;;;;;4993715;28;20477;-77
2023/04/05 09:47:56;;;;;;;2.60;2.43;;;21.90;46.70;;;;;;4992758;28;20944;-76
2023/04/05 09:50:26;;;;;;;2.80;2.60;;;21.90;46.70;;;;;;4998611;28;20974;-77
2023/04/05 09:53:07;;;;;;;2.90;2.70;;;21.90;46.70;;;;;;5008002;28;20492;-77
2023/04/05 09:55:35;;;;;;;2.27;2.13;;;22.00;46.70;;;;;;5013596;28;21014;-78
2023/04/05 09:58:03;;;;;;;3.40;3.10;;;22.00;46.70;;;;;;5012685;28;20456;-76
2023/04/05 10:00:32;;;;;;;3.10;2.60;;;22.00;46.60;;;;;;5011648;28;20494;-76
2023/04/05 10:03:00;;;;;;;2.30;2.20;;;22.00;46.60;;;;;;5011195;28;20854;-76
2023/04/05 10:05:31;;;;;;;3.13;2.93;;;22.00;46.60;;;;;;4991759;28;20527;-76
2023/04/05 10:07:59;;;;;;;2.50;2.30;;;22.10;46.60;;;;;;4993285;28;20460;-76
2023/04/05 10:10:29;;;;;;;3.13;2.93;;;22.10;46.60;;;;;;4998098;28;20992;-76
2023/04/05 10:12:57;;;;;;;3.10;2.90;;;22.10;46.60;;;;;;5012229;28;20839;-76
2023/04/05 10:15:26;;;;;;;2.73;2.53;;;22.10;46.60;;;;;;5012526;28;20442;-76
2023/04/05 10:18:08;;;;;;;2.60;2.40;;;22.10;46.60;;;;;;5012759;28;20451;-76
2023/04/05 10:20:41;;;;;;;2.60;2.40;;;22.10;46.60;;;;;;5004372;28;20463;-76
2023/04/05 10:23:16;;;;;;;3.10;2.80;;;22.10;46.60;;;;;;5012896;28;20427;-77
2023/04/05 10:25:52;;;;;;;2.50;2.30;;;22.10;46.60;;;;;;4995735;28;20447;-77
2023/04/05 10:28:30;;;;;;;3.03;2.83;;;22.10;46.60;;;;;;4992203;28;20437;-77
2023/04/05 10:31:08;;;;;;;2.33;2.23;;;22.20;46.50;;;;;;5001726;28;20552;-76
2023/04/05 10:33:40;;;;;;;2.73;2.53;;;22.20;46.50;;;;;;5012673;28;20940;-76
2023/04/05 10:36:17;;;;;;;2.67;2.47;;;22.20;46.50;;;;;;5012077;28;20915;-77
2023/04/05 10:38:58;;;;;;;2.80;2.60;;;22.20;46.50;;;;;;4992521;28;20423;-78
2023/04/05 10:41:30;;;;;;;2.60;2.40;;;22.20;46.50;;;;;;5008868;28;20543;-77
2023/04/05 10:43:59;;;;;;;2.70;2.50;;;22.20;46.50;;;;;;5008089;28;20490;-76
2023/04/05 10:46:32;;;;;;;2.60;2.40;;;22.20;46.50;;;;;;5012614;28;20547;-76
2023/04/05 10:49:11;;;;;;;2.73;2.53;;;22.20;46.50;;;;;;5012399;28;20471;-76
2023/04/05 10:51:42;;;;;;;2.30;2.20;;;22.30;46.40;;;;;;5017107;28;20582;-77
2023/04/05 10:54:12;;;;;;;2.50;2.40;;;22.30;46.40;;;;;;5031341;28;20518;-77
2023/04/05 10:56:40;;;;;;;2.37;2.17;;;22.30;46.40;;;;;;5032180;28;20456;-76
2023/04/05 10:59:09;;;;;;;2.97;2.77;;;22.40;46.20;;;;;;5028012;28;20925;-76
2023/04/05 11:01:39;;;;;;;2.57;2.37;;;22.40;46.20;;;;;;5025187;28;20457;-76
2023/04/05 11:04:12;;;;;;;2.37;2.20;;;22.50;46.10;;;;;;5031546;28;20437;-76
2023/04/05 11:06:42;;;;;;;2.60;2.40;;;22.50;46.00;;;;;;5031391;28;20864;-76
2023/04/05 11:09:14;;;;;;;2.50;2.30;;;22.60;45.80;;;;;;5031231;28;20934;-85
2023/04/05 11:11:44;;;;;;;2.20;2.00;;;22.70;45.60;;;;;;5031212;28;20480;-76
2023/04/05 11:14:19;;;;;;;2.50;2.30;;;22.90;45.50;;;;;;5030770;28;20916;-76
2023/04/05 11:16:52;;;;;;;3.17;2.70;;;23.10;45.30;;;;;;5030852;28;20542;-77
2023/04/05 11:19:20;;;;;;;2.60;2.40;;;23.30;44.90;;;;;;5031543;28;20446;-78
2023/04/05 11:22:01;;;;;;;2.70;2.10;;;23.50;44.50;;;;;;5030503;28;20494;-76
2023/04/05 11:24:50;;;;;;;2.53;2.33;;;23.70;44.20;;;;;;5026232;28;20820;-76
2023/04/05 11:27:25;;;;;;;2.57;2.47;;;24.00;43.80;;;;;;5031480;28;20539;-76
2023/04/05 11:29:54;;;;;;;2.70;2.50;;;24.10;43.60;;;;;;5030159;28;20849;-79
2023/04/05 11:32:23;;;;;;;2.90;2.70;;;24.20;43.50;;;;;;5030501;28;20524;-83
2023/04/05 11:35:12;;;;;;;3.20;2.67;;;24.40;43.40;;;;;;5030992;28;20780;-77
2023/04/05 11:38:08;;;;;;;2.97;2.77;;;24.40;43.20;;;;;;5030983;28;20427;-77
2023/04/05 11:40:39;;;;;;;3.13;2.93;;;24.50;43.00;;;;;;5023663;28;20562;-83
2023/04/05 11:43:10;;;;;;;2.40;2.30;;;24.60;42.90;;;;;;5025515;28;20511;-80
2023/04/05 11:45:39;;;;;;;2.23;2.13;;;24.70;42.90;;;;;;5022492;28;20528;-77
2023/04/05 11:48:09;;;;;;;3.30;2.50;;;24.70;42.70;;;;;;5030233;28;20537;-79
2023/04/05 11:50:41;;;;;;;3.17;2.97;;;24.70;42.80;;;;;;5030032;28;20874;-77
2023/04/05 11:53:15;;;;;;;2.57;2.40;;;24.70;42.70;;;;;;5024786;28;20494;-76
2023/04/05 11:55:45;;;;;;;2.37;2.27;;;24.80;42.70;;;;;;5011022;28;20483;-78
2023/04/05 11:58:17;;;;;;;2.53;2.30;;;24.70;42.70;;;;;;5010500;28;20460;-80
2023/04/05 12:00:46;;;;;;;2.43;2.23;;;24.70;42.80;;;;;;5016101;28;20464;-77
2023/04/05 12:03:15;;;;;;;2.40;2.30;;;24.70;42.80;;;;;;5030653;28;20912;-77
2023/04/05 12:05:51;;;;;;;2.40;2.30;;;24.70;42.80;;;;;;5027787;28;20477;-78
2023/04/05 12:08:21;;;;;;;2.27;2.07;;;24.70;42.80;;;;;;5030702;28;20488;-77
2023/04/05 12:11:00;;;;;;;2.20;2.10;;;24.80;42.90;;;;;;5030028;28;20483;-80
2023/04/05 12:13:29;;;;;;;2.80;2.60;;;24.80;42.70;;;;;;5029818;28;20522;-76
2023/04/05 12:16:00;;;;;;;2.23;2.13;;;24.80;42.70;;;;;;5030816;28;20426;-77
2023/04/05 12:18:31;;;;;;;2.70;2.50;;;24.90;42.70;;;;;;5030126;28;20450;-77
2023/04/05 12:21:00;;;;;;;2.23;2.10;;;24.90;42.60;;;;;;5030335;28;20511;-78
2023/04/05 12:23:29;;;;;;;2.50;2.30;;;25.00;42.60;;;;;;5030358;28;20520;-77
2023/04/05 12:25:58;;;;;;;2.40;2.20;;;25.00;42.40;;;;;;5030650;28;20528;-77
2023/04/05 12:28:26;;;;;;;2.30;2.20;;;25.00;42.40;;;;;;5019686;28;20974;-76
2023/04/05 12:30:56;;;;;;;2.67;2.47;;;25.00;42.40;;;;;;5016394;28;20449;-80
2023/04/05 12:33:28;;;;;;;2.47;2.27;;;25.00;42.40;;;;;;5030183;28;20474;-79
2023/04/05 12:35:56;;;;;;;2.47;2.27;;;25.10;42.30;;;;;;5033022;28;20509;-76
2023/04/05 12:38:27;;;;;;;3.13;2.73;;;25.10;42.30;;;;;;5014630;28;20524;-77
2023/04/05 12:40:59;;;;;;;2.07;1.97;;;25.10;42.30;;;;;;5020086;28;20454;-77
2023/04/05 12:43:40;;;;;;;2.43;2.23;;;25.10;42.30;;;;;;5033632;28;20510;-76
2023/04/05 12:46:11;;;;;;;2.40;2.27;;;25.10;42.30;;;;;;5031462;28;20452;-76
2023/04/05 12:48:42;;;;;;;2.30;2.20;;;25.10;42.30;;;;;;5018070;28;20438;-76
2023/04/05 12:51:15;;;;;;;3.27;3.03;;;25.10;42.30;;;;;;5004256;28;20454;-76
2023/04/05 12:53:48;;;;;;;2.10;2.00;;;25.00;42.30;;;;;;5033581;28;20484;-79
2023/04/05 12:56:17;;;;;;;2.03;1.93;;;25.00;42.30;;;;;;5033753;28;20902;-77
2023/04/05 12:58:49;;;;;;;3.17;2.87;;;24.90;42.50;;;;;;5015528;28;21000;-76
2023/04/05 13:01:18;;;;;;;1.80;1.70;;;24.90;42.60;;;;;;5032976;28;20455;-77
2023/04/05 13:03:47;;;;;;;2.10;2.00;;;24.90;42.70;;;;;;5033794;28;20527;-77
2023/04/05 13:06:17;;;;;;;1.77;1.67;;;24.90;42.70;;;;;;5033925;28;20433;-76
2023/04/05 13:08:45;;;;;;;2.67;2.47;;;24.90;42.70;;;;;;5020837;28;20496;-83
2023/04/05 13:11:13;;;;;;;2.40;2.20;;;25.00;42.70;;;;;;5021180;28;20492;-78